createdAt,value
2023-01-29T00:01:13.935Z,30.45
2023-01-29T00:03:41.544Z,39.63
2023-01-29T00:06:09.383Z,36.83
2023-01-29T00:08:41.389Z,36.10
2023-01-29T00:11:09.299Z,30.40
2023-01-29T00:13:42.580Z,29.65
2023-01-29T00:16:22.239Z,30.30
2023-01-29T00:18:49.893Z,33.58
2023-01-29T00:21:19.058Z,31.67
2023-01-29T00:23:46.600Z,31.40
2023-01-29T00:26:13.977Z,41.00
2023-01-29T00:28:46.887Z,35.10
2023-01-29T00:31:19.707Z,36.65
2023-01-29T00:33:47.206Z,37.92
2023-01-29T00:36:22.621Z,31.05
2023-01-29T00:39:00.890Z,30.92
2023-01-29T00:41:49.602Z,37.55
2023-01-29T00:44:34.982Z,39.15
2023-01-29T00:47:29.704Z,38.13
2023-01-29T00:49:57.594Z,41.78
2023-01-29T00:52:25.074Z,37.42
2023-01-29T00:55:01.258Z,33.03
2023-01-29T00:57:32.744Z,33.35
2023-01-29T01:00:13.189Z,32.28
2023-01-29T01:03:02.709Z,38.67
2023-01-29T01:05:29.508Z,31.52
2023-01-29T01:08:01.279Z,39.97
2023-01-29T01:10:33.432Z,38.42
2023-01-29T01:13:06.462Z,38.90
2023-01-29T01:15:42.948Z,39.22
2023-01-29T01:18:09.714Z,38.35
2023-01-29T01:20:38.658Z,39.60
2023-01-29T01:23:05.338Z,41.00
2023-01-29T01:25:36.088Z,34.72
2023-01-29T01:28:17.892Z,32.85
2023-01-29T01:30:48.377Z,32.92
2023-01-29T01:33:15.137Z,33.83
2023-01-29T01:35:41.753Z,39.88
2023-01-29T01:38:09.415Z,38.35
2023-01-29T01:40:36.455Z,38.95
2023-01-29T01:43:03.880Z,34.92
2023-01-29T01:45:33.114Z,32.67
2023-01-29T01:48:06.206Z,41.63
2023-01-29T01:50:36.689Z,34.83
2023-01-29T01:53:21.494Z,41.22
2023-01-29T01:55:56.274Z,39.42
2023-01-29T01:58:43.744Z,34.28
2023-01-29T02:01:13.068Z,35.42
2023-01-29T02:04:13.939Z,41.85
2023-01-29T02:07:00.296Z,41.40
2023-01-29T02:09:39.453Z,43.40
2023-01-29T02:12:08.089Z,45.47
2023-01-29T02:14:39.589Z,43.40
2023-01-29T02:17:16.738Z,35.08
2023-01-29T02:20:21.359Z,41.47
2023-01-29T02:23:09.816Z,40.33
2023-01-29T02:26:07.979Z,39.95
2023-01-29T02:29:22.653Z,35.47
2023-01-29T02:32:07.373Z,34.13
2023-01-29T02:34:55.726Z,39.83
2023-01-29T02:37:35.032Z,32.95
2023-01-29T02:40:21.271Z,40.58
2023-01-29T02:42:57.785Z,41.33
2023-01-29T02:45:45.649Z,40.85
2023-01-29T02:48:23.960Z,43.50
2023-01-29T02:51:03.627Z,35.58
2023-01-29T02:53:36.448Z,40.00
2023-01-29T02:56:35.999Z,37.15
2023-01-29T02:59:40.636Z,33.28
2023-01-29T03:02:22.279Z,33.35
2023-01-29T03:05:08.956Z,44.00
2023-01-29T03:07:52.249Z,34.38
2023-01-29T03:10:32.386Z,44.85
2023-01-29T03:13:06.334Z,41.63
2023-01-29T03:15:53.806Z,35.33
2023-01-29T03:18:33.702Z,42.63
2023-01-29T03:21:37.305Z,42.00
2023-01-29T03:24:27.410Z,41.40
2023-01-29T03:27:13.024Z,42.83
2023-01-29T03:30:02.692Z,34.50
2023-01-29T03:32:41.424Z,44.63
2023-01-29T03:35:13.075Z,33.72
2023-01-29T03:37:49.177Z,38.10
2023-01-29T03:40:16.929Z,36.67
2023-01-29T03:43:10.829Z,35.70
2023-01-29T03:46:10.687Z,35.58
2023-01-29T03:48:48.007Z,43.22
2023-01-29T03:51:38.768Z,43.35
2023-01-29T03:54:36.678Z,41.10
2023-01-29T03:57:19.899Z,41.63
2023-01-29T03:59:57.535Z,41.42
2023-01-29T04:02:35.637Z,43.03
2023-01-29T04:05:27.484Z,44.38
2023-01-29T04:08:08.162Z,43.95
2023-01-29T04:10:39.020Z,35.85
2023-01-29T04:13:12.002Z,45.00
2023-01-29T04:15:50.932Z,43.53
2023-01-29T04:18:27.715Z,42.28
2023-01-29T04:20:56.106Z,36.70
2023-01-29T04:23:30.997Z,34.22
2023-01-29T04:26:22.751Z,43.75
2023-01-29T04:29:30.448Z,44.03
2023-01-29T04:32:28.533Z,41.03
2023-01-29T04:35:15.691Z,40.33
2023-01-29T04:40:37.753Z,45.30
2023-01-29T04:43:17.529Z,42.45
2023-01-29T04:46:15.594Z,41.78
2023-01-29T04:49:27.054Z,43.88
2023-01-29T04:52:45.245Z,44.22
2023-01-29T04:55:37.143Z,45.28
2023-01-29T04:58:09.255Z,43.30
2023-01-29T05:00:42.051Z,35.85
2023-01-29T05:03:12.674Z,41.53
2023-01-29T05:05:46.654Z,40.25
2023-01-29T05:08:20.860Z,40.95
2023-01-29T05:11:00.707Z,39.25
2023-01-29T05:13:38.523Z,38.15
2023-01-29T05:16:27.898Z,35.03
2023-01-29T05:18:55.224Z,39.28
2023-01-29T05:21:28.584Z,46.67
2023-01-29T05:24:20.723Z,42.75
2023-01-29T05:27:08.875Z,43.13
2023-01-29T05:29:35.690Z,46.40
2023-01-29T05:32:14.774Z,48.47
2023-01-29T05:34:47.835Z,35.97
2023-01-29T05:37:16.401Z,37.13
2023-01-29T05:39:49.426Z,44.90
2023-01-29T05:42:16.763Z,37.95
2023-01-29T05:44:47.778Z,45.22
2023-01-29T05:47:24.932Z,46.28
2023-01-29T05:49:54.503Z,50.70
2023-01-29T05:52:25.005Z,47.45
2023-01-29T05:54:52.742Z,42.50
2023-01-29T05:57:22.618Z,41.90
2023-01-29T05:59:51.374Z,47.35
2023-01-29T06:02:26.833Z,47.42
2023-01-29T06:04:57.462Z,46.97
2023-01-29T06:07:30.056Z,48.67
2023-01-29T06:09:57.219Z,46.97
2023-01-29T06:12:24.492Z,52.03
2023-01-29T06:14:54.659Z,47.00
2023-01-29T06:17:21.859Z,50.45
2023-01-29T06:19:51.274Z,46.75
2023-01-29T06:22:21.684Z,46.80
2023-01-29T06:24:49.307Z,57.38
2023-01-29T06:27:16.459Z,44.17
2023-01-29T06:29:49.379Z,43.85
2023-01-29T06:32:19.528Z,54.63
2023-01-29T06:34:52.735Z,62.28
2023-01-29T06:37:20.435Z,46.63
2023-01-29T06:39:48.541Z,49.88
2023-01-29T06:42:21.607Z,49.30
2023-01-29T06:45:00.895Z,48.13
2023-01-29T06:47:36.468Z,59.42
2023-01-29T06:50:16.023Z,59.05
2023-01-29T06:52:50.054Z,49.97
2023-01-29T06:55:19.356Z,59.53
2023-01-29T06:57:46.599Z,61.40
2023-01-29T07:00:13.981Z,52.50
2023-01-29T07:02:43.365Z,49.15
2023-01-29T07:05:16.777Z,51.58
2023-01-29T07:07:43.931Z,47.65
2023-01-29T07:10:10.878Z,50.70
2023-01-29T07:12:37.523Z,48.38
2023-01-29T07:15:07.235Z,47.80
2023-01-29T07:17:37.564Z,53.63
2023-01-29T07:20:06.313Z,53.90
2023-01-29T07:22:33.077Z,49.15
2023-01-29T07:25:04.608Z,50.53
2023-01-29T07:27:36.227Z,44.30
2023-01-29T07:30:03.322Z,55.17
2023-01-29T07:32:42.735Z,47.03
2023-01-29T07:35:11.485Z,49.65
2023-01-29T07:37:44.891Z,53.47
2023-01-29T07:40:11.997Z,54.90
2023-01-29T07:42:41.482Z,51.80
2023-01-29T07:45:11.867Z,51.72
2023-01-29T07:47:41.843Z,54.35
2023-01-29T07:50:09.098Z,40.97
2023-01-29T07:52:38.978Z,54.83
2023-01-29T07:55:11.350Z,49.35
2023-01-29T07:57:47.912Z,46.47
2023-01-29T08:00:15.538Z,52.30
2023-01-29T08:05:12.629Z,47.58
2023-01-29T08:07:39.272Z,49.78
2023-01-29T08:10:06.251Z,48.72
2023-01-29T08:12:33.092Z,48.03
2023-01-29T08:14:59.804Z,55.80
2023-01-29T08:17:26.440Z,59.83
2023-01-29T08:19:53.254Z,56.60
2023-01-29T08:22:20.051Z,47.80
2023-01-29T08:24:53.747Z,54.95
2023-01-29T08:27:26.903Z,58.55
2023-01-29T08:29:53.678Z,56.65
2023-01-29T08:32:20.449Z,56.28
2023-01-29T08:34:49.414Z,64.72
2023-01-29T08:37:16.140Z,67.35
2023-01-29T08:42:09.469Z,57.05
2023-01-29T08:44:36.780Z,49.95
2023-01-29T08:47:03.703Z,74.22
2023-01-29T08:49:33.331Z,62.65
2023-01-29T08:52:08.924Z,60.28
2023-01-29T08:54:35.580Z,62.97
2023-01-29T08:57:02.263Z,62.67
2023-01-29T08:59:29.318Z,62.45
2023-01-29T09:01:55.936Z,60.13
2023-01-29T09:04:22.568Z,64.22
2023-01-29T09:06:49.229Z,64.75
2023-01-29T09:09:19.036Z,56.10
2023-01-29T09:11:45.686Z,62.08
2023-01-29T09:14:14.597Z,55.60
2023-01-29T09:16:44.176Z,63.30
2023-01-29T09:19:11.536Z,56.25
2023-01-29T09:21:38.237Z,64.20
2023-01-29T09:24:05.317Z,61.78
2023-01-29T09:26:32.051Z,48.13
2023-01-29T09:28:58.713Z,64.10
2023-01-29T09:31:29.266Z,59.92
2023-01-29T09:33:56.429Z,57.65
2023-01-29T09:36:23.112Z,52.53
2023-01-29T09:38:50.337Z,52.40
2023-01-29T09:41:22.983Z,60.88
2023-01-29T09:43:53.629Z,60.75
2023-01-29T09:46:28.777Z,51.42
2023-01-29T09:49:08.352Z,52.92
2023-01-29T09:51:42.019Z,48.65
2023-01-29T09:54:18.674Z,57.75
2023-01-29T09:56:46.815Z,46.38
2023-01-29T09:59:17.314Z,59.53
2023-01-29T10:01:58.896Z,57.28
2023-01-29T10:04:48.061Z,51.28
2023-01-29T10:07:47.201Z,48.83
2023-01-29T10:10:36.540Z,45.05
2023-01-29T10:13:03.134Z,45.58
2023-01-29T10:15:47.618Z,51.70
2023-01-29T10:18:37.405Z,54.45
2023-01-29T10:21:11.963Z,57.55
2023-01-29T10:23:48.004Z,49.90
2023-01-29T10:26:14.760Z,39.75
2023-01-29T10:28:48.561Z,46.92
2023-01-29T10:31:29.081Z,53.38
2023-01-29T10:36:38.921Z,47.13
2023-01-29T10:39:05.961Z,52.40
2023-01-29T10:41:50.608Z,50.53
2023-01-29T10:44:40.636Z,60.03
2023-01-29T10:47:32.478Z,55.65
2023-01-29T10:50:23.454Z,48.17
2023-01-29T10:53:04.200Z,49.92
2023-01-29T10:56:17.392Z,47.65
2023-01-29T10:58:50.822Z,47.33
2023-01-29T11:01:19.851Z,44.60
2023-01-29T11:03:56.273Z,49.08
2023-01-29T11:06:32.350Z,49.58
2023-01-29T11:09:22.259Z,47.08
2023-01-29T11:12:06.162Z,47.20
2023-01-29T11:14:54.122Z,44.75
2023-01-29T11:17:23.314Z,48.22
2023-01-29T11:19:51.854Z,44.05
2023-01-29T11:22:21.496Z,47.38
2023-01-29T11:25:16.764Z,44.10
2023-01-29T14:03:11.314Z,45.00
2023-01-29T14:05:41.588Z,42.88
2023-01-29T14:08:18.326Z,38.05
2023-01-29T14:10:45.096Z,41.63
2023-01-29T14:13:23.687Z,47.65
2023-01-29T14:16:00.361Z,42.83
2023-01-29T14:18:29.809Z,40.25
2023-01-29T14:21:06.191Z,39.40
2023-01-29T14:23:49.361Z,43.40
2023-01-29T14:26:28.336Z,46.88
2023-01-29T14:29:03.439Z,40.72
2023-01-29T14:31:44.859Z,39.53
2023-01-29T14:34:31.596Z,38.13
2023-01-29T14:37:04.738Z,40.35
2023-01-29T14:39:43.506Z,45.28
2023-01-29T14:42:23.214Z,42.35
2023-01-29T14:44:56.019Z,38.70
2023-01-29T14:47:46.340Z,37.05
2023-01-29T14:50:18.991Z,40.65
2023-01-29T14:52:47.855Z,38.13
2023-01-29T14:55:50.736Z,39.00
2023-01-29T14:58:32.189Z,39.42
2023-01-29T15:01:05.169Z,39.70
2023-01-29T15:03:37.710Z,39.80
2023-01-29T15:06:06.595Z,38.65
2023-01-29T15:08:43.969Z,39.53
2023-01-29T15:11:36.132Z,44.20
2023-01-29T15:14:33.749Z,38.67
2023-01-29T15:17:09.585Z,38.22
2023-01-29T15:19:48.537Z,39.90
2023-01-29T15:22:29.935Z,38.90
2023-01-29T15:25:13.657Z,39.53
2023-01-29T15:27:45.663Z,41.08
2023-01-29T15:30:25.842Z,43.60
2023-01-29T15:32:56.462Z,41.88
2023-01-29T15:35:36.949Z,40.71
2023-01-29T15:38:06.289Z,46.03
2023-01-29T15:40:34.400Z,44.60
2023-01-29T15:43:01.096Z,43.78
2023-01-29T15:45:35.112Z,39.80
2023-01-29T15:48:29.779Z,46.50
2023-01-29T15:50:58.708Z,43.95
2023-01-29T15:53:35.718Z,43.38
2023-01-29T15:56:02.798Z,41.28
2023-01-29T15:58:32.370Z,45.53
2023-01-29T16:01:01.131Z,46.10
2023-01-29T16:03:32.194Z,41.88
2023-01-29T16:06:02.951Z,43.67
2023-01-29T16:08:29.753Z,40.05
2023-01-29T16:11:03.367Z,46.60
2023-01-29T16:13:36.176Z,42.83
2023-01-29T16:16:19.766Z,42.45
2023-01-29T16:18:59.638Z,40.78
2023-01-29T16:21:47.096Z,38.90
2023-01-29T16:24:22.289Z,42.65
2023-01-29T16:26:51.683Z,40.80
2023-01-29T16:29:31.298Z,39.92
2023-01-29T16:32:02.192Z,44.75
2023-01-29T16:34:55.003Z,41.45
2023-01-29T16:37:32.654Z,42.08
2023-01-29T16:39:59.767Z,41.70
2023-01-29T16:42:32.399Z,41.03
2023-01-29T16:45:05.224Z,39.55
2023-01-29T16:47:41.941Z,44.97
2023-01-29T16:50:17.798Z,45.78
2023-01-29T16:53:27.684Z,44.08
2023-01-29T16:55:54.391Z,42.00
2023-01-29T16:58:30.486Z,44.03
2023-01-29T17:01:02.356Z,44.65
2023-01-29T17:03:32.985Z,44.63
2023-01-29T17:06:08.976Z,41.67
2023-01-29T17:08:35.723Z,44.40
2023-01-29T17:11:03.112Z,47.80
2023-01-29T17:13:45.484Z,47.30
2023-01-29T17:16:20.598Z,45.65
2023-01-29T17:18:47.287Z,40.30
2023-01-29T17:21:13.961Z,43.83
2023-01-29T17:23:40.691Z,45.63
2023-01-29T17:26:13.008Z,43.55
2023-01-29T17:28:40.824Z,45.45
2023-01-29T17:31:10.164Z,37.85
2023-01-29T17:33:42.241Z,46.65
2023-01-29T17:36:21.172Z,41.00
2023-01-29T17:38:47.910Z,44.95
2023-01-29T17:41:22.598Z,41.47
2023-01-29T17:43:49.697Z,38.95
2023-01-29T17:46:18.316Z,43.20
2023-01-29T17:48:46.085Z,43.15
2023-01-29T17:51:15.663Z,43.92
2023-01-29T17:53:47.657Z,45.75
2023-01-29T17:56:37.343Z,44.53
2023-01-29T17:59:14.080Z,44.85
2023-01-29T18:01:44.279Z,47.97
2023-01-29T18:04:11.944Z,41.70
2023-01-29T18:06:47.380Z,47.33
2023-01-29T18:09:20.563Z,40.60
2023-01-29T18:11:49.311Z,46.40
2023-01-29T18:14:19.679Z,42.15
2023-01-29T18:16:49.330Z,44.20
2023-01-29T18:19:27.660Z,42.67
2023-01-29T18:21:54.529Z,42.10
2023-01-29T18:24:23.701Z,37.95
2023-01-29T18:26:55.943Z,45.58
2023-01-29T18:29:30.499Z,44.72
2023-01-29T18:31:57.497Z,40.70
2023-01-29T18:34:33.031Z,40.78
2023-01-29T18:37:00.392Z,40.92
2023-01-29T18:39:27.070Z,46.10
2023-01-29T18:41:53.708Z,44.50
2023-01-29T18:44:20.806Z,42.88
2023-01-29T18:46:47.701Z,41.83
2023-01-29T18:49:16.873Z,40.08
2023-01-29T18:51:43.478Z,39.75
2023-01-29T18:54:13.168Z,40.13
2023-01-29T18:57:13.156Z,38.50
2023-01-29T18:59:29.408Z,45.45
2023-01-29T19:01:59.082Z,45.42
2023-01-29T19:04:25.969Z,44.83
2023-01-29T19:06:52.677Z,41.87
2023-01-29T19:09:28.749Z,39.10
2023-01-29T19:11:55.414Z,45.70
2023-01-29T19:14:22.102Z,46.70
2023-01-29T19:16:52.387Z,41.92
2023-01-29T19:19:26.113Z,43.28
2023-01-29T19:21:54.363Z,46.13
2023-01-29T19:24:41.939Z,44.67
2023-01-29T19:27:11.704Z,45.90
2023-01-29T19:29:43.541Z,42.08
2023-01-29T19:32:16.442Z,44.05
2023-01-29T19:34:43.087Z,44.47
2023-01-29T19:37:09.691Z,46.10
2023-01-29T19:39:42.147Z,47.70
2023-01-29T19:42:12.886Z,43.38
2023-01-29T19:44:45.769Z,52.42
2023-01-29T19:47:12.738Z,48.38
2023-01-29T19:49:52.169Z,49.55
2023-01-29T19:52:50.300Z,48.90
2023-01-29T19:55:17.650Z,40.90
2023-01-29T19:57:44.920Z,40.90
2023-01-29T20:00:24.079Z,52.17
2023-01-29T20:03:03.277Z,39.67
2023-01-29T20:05:31.328Z,44.95
2023-01-29T20:08:00.890Z,39.08
2023-01-29T20:10:35.453Z,41.95
2023-01-29T20:13:03.020Z,39.60
2023-01-29T20:15:39.073Z,42.53
2023-01-29T20:18:11.888Z,43.63
2023-01-29T20:20:46.741Z,41.22
2023-01-29T20:23:16.810Z,42.28
2023-01-29T20:25:47.107Z,40.50
2023-01-29T20:28:15.629Z,43.25
2023-01-29T20:30:55.475Z,40.92
2023-01-29T20:33:31.899Z,40.50
2023-01-29T20:36:00.690Z,34.95
2023-01-29T20:38:30.547Z,62.05
2023-01-29T20:41:12.105Z,48.38
2023-01-29T20:43:38.812Z,67.95
2023-01-29T20:46:05.485Z,65.13
2023-01-29T20:48:33.854Z,59.15
2023-01-29T20:51:09.896Z,61.17
2023-01-29T20:53:37.069Z,50.65
2023-01-29T20:56:04.773Z,36.45
2023-01-29T20:58:37.780Z,47.08
2023-01-29T21:01:12.431Z,47.92
2023-01-29T21:03:40.097Z,49.85
2023-01-29T21:06:08.949Z,54.50
2023-01-29T21:08:36.538Z,41.88
2023-01-29T21:11:07.599Z,54.35
2023-01-29T21:13:34.464Z,56.53
2023-01-29T21:16:02.200Z,43.92
2023-01-29T21:18:29.141Z,55.15
2023-01-29T21:20:55.945Z,47.67
2023-01-29T21:23:22.719Z,58.03
2023-01-29T21:25:49.483Z,50.78
2023-01-29T21:28:16.832Z,57.45
2023-01-29T21:30:50.617Z,54.55
2023-01-29T21:33:20.769Z,55.10
2023-01-29T21:35:58.464Z,52.95
2023-01-29T21:38:25.414Z,56.85
2023-01-29T21:40:56.596Z,54.60
2023-01-29T21:43:23.220Z,48.60
2023-01-29T21:45:59.673Z,46.30
2023-01-29T21:48:30.370Z,41.22
2023-01-29T21:50:57.213Z,47.83
2023-01-29T21:53:23.908Z,55.10
2023-01-29T21:55:50.587Z,55.03
2023-01-29T21:58:19.884Z,45.90
2023-01-29T22:01:18.240Z,44.50
2023-01-29T22:03:51.262Z,44.40
2023-01-29T22:06:23.515Z,39.83
2023-01-29T22:08:53.737Z,40.90
2023-01-29T22:11:20.849Z,43.70
2023-01-29T22:13:47.492Z,41.67
2023-01-29T22:16:14.262Z,47.75
2023-01-29T22:18:41.037Z,41.78
2023-01-29T22:21:07.823Z,39.58
2023-01-29T22:23:34.588Z,36.33
2023-01-29T22:26:12.291Z,41.97
2023-01-29T22:28:41.770Z,40.92
2023-01-29T22:31:11.551Z,40.83
2023-01-29T22:33:38.359Z,42.35
2023-01-29T22:36:05.467Z,45.92
2023-01-29T22:38:37.318Z,56.53
2023-01-29T22:41:04.756Z,43.47
2023-01-29T22:43:31.421Z,57.90
2023-01-29T22:46:03.857Z,42.67
2023-01-29T22:48:30.757Z,42.42
2023-01-29T22:51:11.085Z,41.25
2023-01-29T22:54:01.181Z,59.33
2023-01-29T22:56:30.778Z,53.10
2023-01-29T22:59:00.031Z,52.70
2023-01-29T23:01:31.990Z,59.85
2023-01-29T23:04:00.121Z,37.60
2023-01-29T23:06:29.526Z,40.47
2023-01-29T23:08:56.190Z,45.15
2023-01-29T23:11:39.751Z,43.67
2023-01-29T23:14:06.449Z,41.50
2023-01-29T23:16:34.191Z,40.05
2023-01-29T23:19:00.871Z,36.53
2023-01-29T23:21:35.438Z,47.35
2023-01-29T23:24:13.525Z,42.75
2023-01-29T23:27:01.203Z,54.83
2023-01-29T23:29:30.040Z,38.00
2023-01-29T23:32:02.600Z,37.70
2023-01-29T23:34:38.021Z,42.40
2023-01-29T23:37:08.449Z,42.05
2023-01-29T23:39:39.828Z,41.72
2023-01-29T23:42:08.452Z,36.28
2023-01-29T23:44:35.977Z,39.17
2023-01-29T23:47:12.276Z,40.75
2023-01-29T23:49:43.563Z,38.85
2023-01-29T23:52:15.517Z,46.55
2023-01-29T23:54:54.481Z,40.97
2023-01-29T23:57:24.546Z,45.83
2023-01-29T23:59:55.969Z,38.63
